createdAt,value
2023-02-04T00:00:48.061Z,7.31
2023-02-04T00:01:48.309Z,7.31
2023-02-04T00:02:48.464Z,7.32
2023-02-04T00:03:48.605Z,7.35
2023-02-04T00:04:48.755Z,7.32
2023-02-04T00:05:49.020Z,7.32
2023-02-04T00:06:49.124Z,7.31
2023-02-04T00:07:49.296Z,7.29
2023-02-04T00:08:49.448Z,7.29
2023-02-04T00:09:49.651Z,7.28
2023-02-04T00:10:49.801Z,7.31
2023-02-04T00:11:49.994Z,7.32
2023-02-04T00:12:50.170Z,7.36
2023-02-04T00:13:50.325Z,7.36
2023-02-04T00:14:50.516Z,7.36
2023-02-04T00:15:50.696Z,7.42
2023-02-04T00:16:50.868Z,7.39
2023-02-04T00:17:51.011Z,7.36
2023-02-04T00:18:51.165Z,7.38
2023-02-04T00:19:51.362Z,7.36
2023-02-04T00:20:51.521Z,7.38
2023-02-04T00:21:51.682Z,7.39
2023-02-04T00:22:51.865Z,7.36
2023-02-04T00:23:52.025Z,7.33
2023-02-04T00:24:52.191Z,7.36
2023-02-04T00:25:52.351Z,7.38
2023-02-04T00:26:52.541Z,7.38
2023-02-04T00:27:52.778Z,7.40
2023-02-04T00:28:52.911Z,7.38
2023-02-04T00:29:53.122Z,7.38
2023-02-04T00:30:53.274Z,7.33
2023-02-04T00:31:53.468Z,7.36
2023-02-04T00:32:53.630Z,7.33
2023-02-04T00:33:53.795Z,7.33
2023-02-04T00:34:53.979Z,7.33
2023-02-04T00:35:54.132Z,7.32
2023-02-04T00:36:54.323Z,7.31
2023-02-04T00:37:54.572Z,7.31
2023-02-04T00:38:54.693Z,7.28
2023-02-04T00:39:54.882Z,7.31
2023-02-04T00:40:55.032Z,7.29
2023-02-04T00:41:55.231Z,7.29
2023-02-04T00:42:55.443Z,7.31
2023-02-04T00:43:55.602Z,7.33
2023-02-04T00:44:55.752Z,7.32
2023-02-04T00:45:55.996Z,7.38
2023-02-04T00:46:56.132Z,7.36
2023-02-04T00:47:56.421Z,7.31
2023-02-04T00:48:56.493Z,7.28
2023-02-04T00:49:56.694Z,7.24
2023-02-04T00:50:56.841Z,7.20
2023-02-04T00:51:57.031Z,7.20
2023-02-04T00:52:57.232Z,7.18
2023-02-04T00:53:57.399Z,7.18
2023-02-04T00:54:57.561Z,7.25
2023-02-04T00:55:57.728Z,7.28
2023-02-04T00:56:57.916Z,7.29
2023-02-04T00:57:58.091Z,7.28
2023-02-04T00:58:58.271Z,7.31
2023-02-04T00:59:58.481Z,7.28
2023-02-04T01:00:58.652Z,7.25
2023-02-04T01:01:58.807Z,7.29
2023-02-04T01:02:59.062Z,7.29
2023-02-04T01:03:59.132Z,7.29
2023-02-04T01:04:59.299Z,7.25
2023-02-04T01:05:59.486Z,7.28
2023-02-04T01:06:59.642Z,7.23
2023-02-04T01:07:59.882Z,7.23
2023-02-04T01:09:00.018Z,7.23
2023-02-04T01:10:00.184Z,7.20
2023-02-04T01:11:00.346Z,7.20
2023-02-04T01:12:00.531Z,7.20
2023-02-04T01:13:00.724Z,7.14
2023-02-04T01:14:00.886Z,7.13
2023-02-04T01:15:01.033Z,7.02
2023-02-04T01:16:01.262Z,6.97
2023-02-04T01:17:01.448Z,6.93
2023-02-04T01:18:01.635Z,6.93
2023-02-04T01:19:01.704Z,6.95
2023-02-04T01:20:01.904Z,6.88
2023-02-04T01:21:02.057Z,6.82
2023-02-04T01:22:02.244Z,6.78
2023-02-04T01:23:02.424Z,6.72
2023-02-04T01:24:02.581Z,6.69
2023-02-04T01:25:02.734Z,6.67
2023-02-04T01:26:02.925Z,6.66
2023-02-04T01:27:03.074Z,6.67
2023-02-04T01:28:03.396Z,6.64
2023-02-04T01:29:03.457Z,6.63
2023-02-04T01:30:03.641Z,6.59
2023-02-04T01:31:03.848Z,6.52
2023-02-04T01:32:04.063Z,6.48
2023-02-04T01:33:04.173Z,6.44
2023-02-04T01:34:04.337Z,6.41
2023-02-04T01:35:04.531Z,6.36
2023-02-04T01:36:04.684Z,6.35
2023-02-04T01:37:04.864Z,6.31
2023-02-04T01:38:05.093Z,6.35
2023-02-04T01:39:05.212Z,6.31
2023-02-04T01:40:05.421Z,6.30
2023-02-04T01:41:05.553Z,6.26
2023-02-04T01:42:05.744Z,6.20
2023-02-04T01:43:05.921Z,6.22
2023-02-04T01:44:06.072Z,6.22
2023-02-04T01:45:06.298Z,6.17
2023-02-04T01:46:06.494Z,6.16
2023-02-04T01:47:06.621Z,6.12
2023-02-04T01:48:06.887Z,6.09
2023-02-04T01:49:06.985Z,6.08
2023-02-04T01:50:07.179Z,6.05
2023-02-04T01:51:07.335Z,6.01
2023-02-04T01:52:07.525Z,6.02
2023-02-04T01:53:07.718Z,6.02
2023-02-04T01:54:07.870Z,6.05
2023-02-04T01:55:08.050Z,6.05
2023-02-04T01:56:08.240Z,6.07
2023-02-04T01:57:08.420Z,6.04
2023-02-04T01:58:08.640Z,6.07
2023-02-04T01:59:08.760Z,6.02
2023-02-04T02:00:08.953Z,6.02
2023-02-04T02:01:09.183Z,6.01
2023-02-04T02:02:09.363Z,5.99
2023-02-04T02:03:09.499Z,5.99
2023-02-04T02:04:09.674Z,5.99
2023-02-04T02:05:09.808Z,6.01
2023-02-04T02:06:09.999Z,6.04
2023-02-04T02:07:10.185Z,6.04
2023-02-04T02:08:10.359Z,6.02
2023-02-04T02:09:10.498Z,6.04
2023-02-04T02:10:10.688Z,5.99
2023-02-04T02:11:10.878Z,6.01
2023-02-04T02:12:11.057Z,5.98
2023-02-04T02:13:11.238Z,5.94
2023-02-04T02:14:11.388Z,5.94
2023-02-04T02:15:11.569Z,5.94
2023-02-04T02:16:11.760Z,5.90
2023-02-04T02:17:11.916Z,5.87
2023-02-04T02:18:12.141Z,5.86
2023-02-04T02:19:12.288Z,5.80
2023-02-04T02:20:12.506Z,5.76
2023-02-04T02:21:12.650Z,5.76
2023-02-04T02:22:12.836Z,5.79
2023-02-04T02:23:13.008Z,5.79
2023-02-04T02:24:13.186Z,5.76
2023-02-04T02:25:13.365Z,5.80
2023-02-04T02:26:13.515Z,5.80
2023-02-04T02:27:13.706Z,5.76
2023-02-04T02:28:13.924Z,5.79
2023-02-04T02:29:14.086Z,5.73
2023-02-04T02:30:14.285Z,5.75
2023-02-04T02:31:14.496Z,5.75
2023-02-04T02:32:14.609Z,5.72
2023-02-04T02:33:14.797Z,5.73
2023-02-04T02:34:14.936Z,5.71
2023-02-04T02:35:15.100Z,5.68
2023-02-04T02:36:15.287Z,5.66
2023-02-04T02:37:15.441Z,5.69
2023-02-04T02:38:15.645Z,5.65
2023-02-04T02:39:15.804Z,5.64
2023-02-04T02:40:16.004Z,5.64
2023-02-04T02:41:16.144Z,5.64
2023-02-04T02:42:16.333Z,5.64
2023-02-04T02:43:16.525Z,5.61
2023-02-04T02:44:16.675Z,5.64
2023-02-04T02:45:16.855Z,5.64
2023-02-04T02:46:17.159Z,5.62
2023-02-04T02:47:17.208Z,5.64
2023-02-04T02:48:17.382Z,5.62
2023-02-04T02:49:17.537Z,5.61
2023-02-04T02:50:17.698Z,5.61
2023-02-04T02:51:17.858Z,5.56
2023-02-04T02:52:18.008Z,5.51
2023-02-04T02:53:18.221Z,5.51
2023-02-04T02:54:18.376Z,5.51
2023-02-04T02:55:18.573Z,5.51
2023-02-04T02:56:18.724Z,5.50
2023-02-04T02:57:18.937Z,5.50
2023-02-04T02:58:19.077Z,5.50
2023-02-04T02:59:19.235Z,5.50
2023-02-04T03:00:19.393Z,5.48
2023-02-04T03:01:19.651Z,5.47
2023-02-04T03:02:19.817Z,5.48
2023-02-04T03:03:19.938Z,5.48
2023-02-04T03:04:20.085Z,5.48
2023-02-04T03:05:20.282Z,5.46
2023-02-04T03:06:20.491Z,5.43
2023-02-04T03:07:20.634Z,5.41
2023-02-04T03:08:20.789Z,5.41
2023-02-04T03:09:20.974Z,5.36
2023-02-04T03:10:21.135Z,5.33
2023-02-04T03:11:21.333Z,5.32
2023-02-04T03:12:21.483Z,5.33
2023-02-04T03:13:21.690Z,5.32
2023-02-04T03:14:21.850Z,5.33
2023-02-04T03:15:22.006Z,5.29
2023-02-04T03:16:22.169Z,5.26
2023-02-04T03:17:22.351Z,5.25
2023-02-04T03:18:22.551Z,5.25
2023-02-04T03:19:22.704Z,5.21
2023-02-04T03:20:22.863Z,5.20
2023-02-04T03:21:23.054Z,5.20
2023-02-04T03:22:23.219Z,5.17
2023-02-04T03:23:23.414Z,5.18
2023-02-04T03:24:23.597Z,5.17
2023-02-04T03:25:23.754Z,5.14
2023-02-04T03:26:23.930Z,5.12
2023-02-04T03:27:24.106Z,5.08
2023-02-04T03:28:24.274Z,5.07
2023-02-04T03:29:24.435Z,5.07
2023-02-04T03:30:24.584Z,5.04
2023-02-04T03:31:24.846Z,5.02
2023-02-04T03:32:24.954Z,5.04
2023-02-04T03:33:25.167Z,5.02
2023-02-04T03:34:25.315Z,4.96
2023-02-04T03:35:25.506Z,4.93
2023-02-04T03:36:25.654Z,4.90
2023-02-04T03:37:25.848Z,4.90
2023-02-04T03:38:26.015Z,4.90
2023-02-04T03:39:26.165Z,4.89
2023-02-04T03:40:26.323Z,4.90
2023-02-04T03:41:26.516Z,4.86
2023-02-04T03:42:26.676Z,4.82
2023-02-04T03:43:26.982Z,4.84
2023-02-04T03:44:27.075Z,4.82
2023-02-04T03:45:32.426Z,4.78
2023-02-04T03:46:28.416Z,4.78
2023-02-04T03:47:27.582Z,4.77
2023-02-04T03:48:27.785Z,4.74
2023-02-04T03:49:27.947Z,4.74
2023-02-04T03:50:28.126Z,4.73
2023-02-04T03:51:28.322Z,4.74
2023-02-04T03:52:28.474Z,4.71
2023-02-04T03:53:28.684Z,4.68
2023-02-04T03:54:28.840Z,4.70
2023-02-04T03:55:29.034Z,4.66
2023-02-04T03:56:29.207Z,4.67
2023-02-04T03:57:29.357Z,4.66
2023-02-04T03:58:29.561Z,4.66
2023-02-04T03:59:29.713Z,4.63
2023-02-04T04:00:30.204Z,4.66
2023-02-04T04:01:30.120Z,4.63
2023-02-04T04:02:30.319Z,4.63
2023-02-04T04:03:30.443Z,4.66
2023-02-04T04:04:30.590Z,4.60
2023-02-04T04:05:30.775Z,4.62
2023-02-04T04:06:30.923Z,4.63
2023-02-04T04:07:31.114Z,4.62
2023-02-04T04:08:31.283Z,4.59
2023-02-04T04:09:31.444Z,4.62
2023-02-04T04:10:31.923Z,4.62
2023-02-04T04:11:31.813Z,4.62
2023-02-04T04:12:31.981Z,4.59
2023-02-04T04:13:32.152Z,4.59
2023-02-04T04:14:32.310Z,4.59
2023-02-04T04:15:32.491Z,4.59
2023-02-04T04:16:32.647Z,4.56
2023-02-04T04:17:32.877Z,4.56
2023-02-04T04:18:33.049Z,4.55
2023-02-04T04:19:33.211Z,4.55
2023-02-04T04:20:33.843Z,4.55
2023-02-04T04:21:33.572Z,4.53
2023-02-04T04:22:33.727Z,4.55
2023-02-04T04:23:33.941Z,4.55
2023-02-04T04:24:34.098Z,4.56
2023-02-04T04:25:34.243Z,4.56
2023-02-04T04:26:34.434Z,4.55
2023-02-04T04:27:34.654Z,4.53
2023-02-04T04:28:34.772Z,4.55
2023-02-04T04:29:34.933Z,4.53
2023-02-04T04:30:35.088Z,4.58
2023-02-04T04:31:35.334Z,4.53
2023-02-04T04:32:35.475Z,4.53
2023-02-04T04:33:35.594Z,4.53
2023-02-04T04:34:35.777Z,4.53
2023-02-04T04:35:35.959Z,4.56
2023-02-04T04:36:36.124Z,4.56
2023-02-04T04:37:36.327Z,4.58
2023-02-04T04:38:36.473Z,4.59
2023-02-04T04:39:36.672Z,4.62
2023-02-04T04:40:36.824Z,4.59
2023-02-04T04:41:37.011Z,4.63
2023-02-04T04:42:37.171Z,4.66
2023-02-04T04:43:37.331Z,4.63
2023-02-04T04:44:37.490Z,4.66
2023-02-04T04:45:37.681Z,4.68
2023-02-04T04:46:37.925Z,4.68
2023-02-04T04:47:38.047Z,4.68
2023-02-04T04:48:38.227Z,4.68
2023-02-04T04:49:38.373Z,4.67
2023-02-04T04:50:38.527Z,4.68
2023-02-04T04:51:38.716Z,4.68
2023-02-04T04:52:38.876Z,4.67
2023-02-04T04:53:39.038Z,4.68
2023-02-04T04:54:39.198Z,4.70
2023-02-04T04:55:39.375Z,4.68
2023-02-04T04:56:39.537Z,4.70
2023-02-04T04:57:39.704Z,4.73
2023-02-04T04:58:39.877Z,4.73
2023-02-04T04:59:40.048Z,4.74
2023-02-04T05:00:40.247Z,4.78
2023-02-04T05:01:40.387Z,4.80
2023-02-04T05:02:40.548Z,4.82
2023-02-04T05:03:40.766Z,4.82
2023-02-04T05:04:40.939Z,4.86
2023-02-04T05:05:41.084Z,4.84
2023-02-04T05:06:41.249Z,4.78
2023-02-04T05:07:41.440Z,4.77
2023-02-04T05:08:41.590Z,4.74
2023-02-04T05:09:41.752Z,4.74
2023-02-04T05:10:41.908Z,4.68
2023-02-04T05:11:42.098Z,4.63
2023-02-04T05:12:42.252Z,4.63
2023-02-04T05:13:42.421Z,4.63
2023-02-04T05:14:42.588Z,4.62
2023-02-04T05:15:42.778Z,4.63
2023-02-04T05:16:42.994Z,4.62
2023-02-04T05:17:43.134Z,4.59
2023-02-04T05:18:43.304Z,4.59
2023-02-04T05:19:43.461Z,4.58
2023-02-04T05:20:43.650Z,4.58
2023-02-04T05:21:43.810Z,4.58
2023-02-04T05:22:43.969Z,4.59
2023-02-04T05:23:44.171Z,4.59
2023-02-04T05:24:44.334Z,4.58
2023-02-04T05:25:44.510Z,4.62
2023-02-04T05:26:44.675Z,4.68
2023-02-04T05:27:44.903Z,4.71
2023-02-04T05:28:45.046Z,4.73
2023-02-04T05:29:45.207Z,4.74
2023-02-04T05:30:45.373Z,4.78
2023-02-04T05:31:45.610Z,4.80
2023-02-04T05:32:45.698Z,4.78
2023-02-04T05:33:45.910Z,4.82
2023-02-04T05:34:46.063Z,4.86
2023-02-04T05:35:46.252Z,4.82
2023-02-04T05:36:46.428Z,4.84
2023-02-04T05:37:46.623Z,4.84
2023-02-04T05:38:46.788Z,4.80
2023-02-04T05:39:46.945Z,4.80
2023-02-04T05:40:47.102Z,4.77
2023-02-04T05:41:47.294Z,4.75
2023-02-04T05:42:47.446Z,4.75
2023-02-04T05:43:47.646Z,4.70
2023-02-04T05:44:47.798Z,4.70
2023-02-04T05:45:48.046Z,4.68
2023-02-04T05:46:48.163Z,4.67
2023-02-04T05:47:48.543Z,4.63
2023-02-04T05:48:48.545Z,4.66
2023-02-04T05:49:48.704Z,4.63
2023-02-04T05:50:48.868Z,4.63
2023-02-04T05:51:49.063Z,4.63
2023-02-04T05:52:49.230Z,4.66
2023-02-04T05:53:49.426Z,4.62
2023-02-04T05:54:49.581Z,4.59
2023-02-04T05:55:49.774Z,4.58
2023-02-04T05:56:49.925Z,4.58
2023-02-04T05:57:50.113Z,4.58
2023-02-04T05:58:50.287Z,4.50
2023-02-04T05:59:50.443Z,4.49
2023-02-04T06:00:50.632Z,4.50
2023-02-04T06:01:50.813Z,4.48
2023-02-04T06:02:50.972Z,4.44
2023-02-04T06:03:51.225Z,4.42
2023-02-04T06:04:51.322Z,4.41
2023-02-04T06:05:51.512Z,4.41
2023-02-04T06:06:51.664Z,4.38
2023-02-04T06:07:51.852Z,4.38
2023-02-04T06:08:52.064Z,4.38
2023-02-04T06:09:52.228Z,4.38
2023-02-04T06:10:52.405Z,4.37
2023-02-04T06:11:52.592Z,4.35
2023-02-04T06:12:52.741Z,4.31
2023-02-04T06:13:52.921Z,4.31
2023-02-04T06:14:53.075Z,4.30
2023-02-04T06:15:53.261Z,4.28
2023-02-04T06:16:53.452Z,4.26
2023-02-04T06:17:53.603Z,4.26
2023-02-04T06:18:53.769Z,4.24
2023-02-04T06:19:53.929Z,4.23
2023-02-04T06:20:54.079Z,4.22
2023-02-04T06:21:54.240Z,4.22
2023-02-04T06:22:54.414Z,4.22
2023-02-04T06:23:54.600Z,4.20
2023-02-04T06:24:54.754Z,4.20
2023-02-04T06:25:54.930Z,4.19
2023-02-04T06:26:55.130Z,4.17
2023-02-04T06:27:55.341Z,4.22
2023-02-04T06:28:55.470Z,4.20
2023-02-04T06:29:55.648Z,4.23
2023-02-04T06:30:55.951Z,4.23
2023-02-04T06:31:56.204Z,4.22
2023-02-04T06:32:56.200Z,4.20
2023-02-04T06:33:56.396Z,4.20
2023-02-04T06:34:56.551Z,4.22
2023-02-04T06:35:56.728Z,4.22
2023-02-04T06:36:56.906Z,4.20
2023-02-04T06:37:57.096Z,4.23
2023-02-04T06:38:57.263Z,4.22
2023-02-04T06:39:57.453Z,4.24
2023-02-04T06:40:57.640Z,4.23
2023-02-04T06:41:57.786Z,4.24
2023-02-04T06:42:57.977Z,4.23
2023-02-04T06:43:58.180Z,4.23
2023-02-04T06:44:58.343Z,4.23
2023-02-04T06:45:58.580Z,4.23
2023-02-04T06:46:58.685Z,4.23
2023-02-04T06:47:58.865Z,4.24
2023-02-04T06:48:59.066Z,4.28
2023-02-04T06:49:59.220Z,4.28
2023-02-04T06:50:59.395Z,4.31
2023-02-04T06:51:59.588Z,4.30
2023-02-04T06:52:59.779Z,4.26
2023-02-04T06:53:59.956Z,4.28
2023-02-04T06:55:00.118Z,4.24
2023-02-04T06:56:00.274Z,4.24
2023-02-04T06:57:00.460Z,4.28
2023-02-04T06:58:00.647Z,4.31
2023-02-04T06:59:03.034Z,4.32
2023-02-04T07:00:01.003Z,4.34
2023-02-04T07:01:01.203Z,4.34
2023-02-04T07:02:01.391Z,4.38
2023-02-04T07:03:01.553Z,4.37
2023-02-04T07:04:01.733Z,4.40
2023-02-04T07:05:01.904Z,4.38
2023-02-04T07:06:02.104Z,4.40
2023-02-04T07:07:02.274Z,4.40
2023-02-04T07:08:02.470Z,4.38
2023-02-04T07:09:02.663Z,4.40
2023-02-04T07:10:02.843Z,4.40
2023-02-04T07:11:03.031Z,4.37
2023-02-04T07:12:03.172Z,4.37
2023-02-04T07:13:03.356Z,4.38
2023-02-04T07:14:03.552Z,4.40
2023-02-04T07:15:03.734Z,4.41
2023-02-04T07:16:03.979Z,4.42
2023-02-04T07:17:04.072Z,4.42
2023-02-04T07:18:04.223Z,4.44
2023-02-04T07:19:04.432Z,4.44
2023-02-04T07:20:04.594Z,4.48
2023-02-04T07:21:04.752Z,4.45
2023-02-04T07:22:04.913Z,4.49
2023-02-04T07:23:05.078Z,4.49
2023-02-04T07:24:05.252Z,4.50
2023-02-04T07:25:05.417Z,4.53
2023-02-04T07:26:05.571Z,4.55
2023-02-04T07:27:05.736Z,4.55
2023-02-04T07:28:05.961Z,4.55
2023-02-04T07:29:10.263Z,4.56
2023-02-04T07:30:07.230Z,4.55
2023-02-04T07:31:06.419Z,4.58
2023-02-04T07:32:06.718Z,4.59
2023-02-04T07:33:06.725Z,4.62
2023-02-04T07:34:06.910Z,4.63
2023-02-04T07:35:07.090Z,4.60
2023-02-04T07:36:07.280Z,4.60
2023-02-04T07:37:07.541Z,4.63
2023-02-04T07:38:07.632Z,4.66
2023-02-04T07:39:07.827Z,4.68
2023-02-04T07:40:07.986Z,4.71
2023-02-04T07:41:08.164Z,4.71
2023-02-04T07:42:08.341Z,4.71
2023-02-04T07:43:08.522Z,4.73
2023-02-04T07:44:08.781Z,4.73
2023-02-04T07:45:08.888Z,4.75
2023-02-04T07:46:09.099Z,4.75
2023-02-04T07:47:09.222Z,4.78
2023-02-04T07:48:09.400Z,4.80
2023-02-04T07:49:09.601Z,4.82
2023-02-04T07:50:09.767Z,4.86
2023-02-04T07:51:09.948Z,4.90
2023-02-04T07:52:10.116Z,4.90
2023-02-04T07:53:10.299Z,4.96
2023-02-04T07:54:10.488Z,4.99
2023-02-04T07:55:10.665Z,5.02
2023-02-04T07:56:10.836Z,5.07
2023-02-04T07:57:11.015Z,5.10
2023-02-04T07:58:11.192Z,5.15
2023-02-04T07:59:11.384Z,5.20
2023-02-04T08:00:11.524Z,5.26
2023-02-04T08:01:11.738Z,5.30
2023-02-04T08:02:11.854Z,5.33
2023-02-04T08:03:12.040Z,5.38
2023-02-04T08:04:12.233Z,5.43
2023-02-04T08:05:12.377Z,5.48
2023-02-04T08:06:12.551Z,5.59
2023-02-04T08:07:12.743Z,5.75
2023-02-04T08:08:12.917Z,6.01
2023-02-04T08:09:13.109Z,6.30
2023-02-04T08:10:13.270Z,6.46
2023-02-04T08:11:13.453Z,6.64
2023-02-04T08:12:13.637Z,6.78
2023-02-04T08:13:13.850Z,6.85
2023-02-04T08:14:13.990Z,6.95
2023-02-04T08:15:14.155Z,7.03
2023-02-04T08:16:14.361Z,7.18
2023-02-04T08:17:14.458Z,7.42
2023-02-04T08:18:14.637Z,7.77
2023-02-04T08:19:14.827Z,8.12
2023-02-04T08:20:14.998Z,8.38
2023-02-04T08:21:15.177Z,8.51
2023-02-04T08:22:15.358Z,8.60
2023-02-04T08:23:15.539Z,8.67
2023-02-04T08:24:15.738Z,9.03
2023-02-04T08:25:15.905Z,9.47
2023-02-04T08:26:16.085Z,9.83
2023-02-04T08:27:16.264Z,10.09
2023-02-04T08:28:16.515Z,10.23
2023-02-04T08:29:16.633Z,10.23
2023-02-04T08:30:16.799Z,10.12
2023-02-04T08:31:17.113Z,9.95
2023-02-04T08:32:17.149Z,9.91
2023-02-04T08:33:17.323Z,9.92
2023-02-04T08:34:17.512Z,9.98
2023-02-04T08:35:17.692Z,10.02
2023-02-04T08:36:17.872Z,10.17
2023-02-04T08:37:18.061Z,10.25
2023-02-04T08:38:18.240Z,10.42
2023-02-04T08:39:18.463Z,10.92
2023-02-04T08:40:20.359Z,11.41
2023-02-04T08:41:18.775Z,11.87
2023-02-04T08:42:18.955Z,12.43
2023-02-04T08:43:19.147Z,12.80
2023-02-04T08:44:19.342Z,13.04
2023-02-04T08:45:19.496Z,13.33
2023-02-04T08:46:19.722Z,13.72
2023-02-04T08:47:19.852Z,14.23
2023-02-04T08:48:20.024Z,14.63
2023-02-04T08:49:20.228Z,14.92
2023-02-04T08:50:20.406Z,15.22
2023-02-04T08:51:20.616Z,15.44
2023-02-04T08:52:20.769Z,15.61
2023-02-04T08:53:20.959Z,15.77
2023-02-04T08:54:21.153Z,15.97
2023-02-04T08:55:21.313Z,16.28
2023-02-04T08:56:21.463Z,16.53
2023-02-04T08:57:21.655Z,16.79
2023-02-04T08:58:21.837Z,17.12
2023-02-04T08:59:22.048Z,17.42
2023-02-04T09:00:22.186Z,17.74
2023-02-04T09:01:22.441Z,18.04
2023-02-04T09:02:22.581Z,18.22
2023-02-04T09:03:22.720Z,18.34
2023-02-04T09:04:22.898Z,18.47
2023-02-04T09:05:23.050Z,18.56
2023-02-04T09:06:23.211Z,18.71
2023-02-04T09:07:23.423Z,18.78
2023-02-04T09:08:23.563Z,19.07
2023-02-04T09:09:26.112Z,19.21
2023-02-04T09:10:23.953Z,19.22
2023-02-04T09:11:24.084Z,19.21
2023-02-04T09:12:24.265Z,19.14
2023-02-04T09:13:24.443Z,19.19
2023-02-04T09:14:24.627Z,19.41
2023-02-04T09:15:24.805Z,19.66
2023-02-04T09:16:25.035Z,19.76
2023-02-04T09:17:25.171Z,19.94
2023-02-04T09:18:25.348Z,19.92
2023-02-04T09:19:25.618Z,20.07
2023-02-04T09:20:25.786Z,20.16
2023-02-04T09:21:25.847Z,20.22
2023-02-04T09:22:26.029Z,20.48
2023-02-04T09:23:26.220Z,20.55
2023-02-04T09:24:26.392Z,20.50
2023-02-04T09:25:26.588Z,20.62
2023-02-04T09:26:26.748Z,20.47
2023-02-04T09:27:26.928Z,20.69
2023-02-04T09:28:27.109Z,21.05
2023-02-04T09:29:27.312Z,21.35
2023-02-04T09:30:27.513Z,21.52
2023-02-04T09:31:27.685Z,21.66
2023-02-04T09:32:27.808Z,21.54
2023-02-04T09:33:27.980Z,21.52
2023-02-04T09:34:28.163Z,21.12
2023-02-04T09:35:28.362Z,20.26
2023-02-04T09:36:28.514Z,20.03
2023-02-04T09:37:28.693Z,19.99
2023-02-04T09:38:28.870Z,19.89
2023-02-04T09:39:29.097Z,19.51
2023-02-04T09:40:29.238Z,18.83
2023-02-04T09:41:29.422Z,18.33
2023-02-04T09:42:29.578Z,17.52
2023-02-04T09:43:29.768Z,16.75
2023-02-04T09:44:29.939Z,16.47
2023-02-04T09:45:30.188Z,16.32
2023-02-04T09:46:30.283Z,16.10
2023-02-04T09:47:30.456Z,15.76
2023-02-04T09:48:30.620Z,15.36
2023-02-04T09:49:30.808Z,14.89
2023-02-04T09:50:31.231Z,14.45
2023-02-04T09:51:31.158Z,13.97
2023-02-04T09:52:31.336Z,13.59
2023-02-04T09:53:31.513Z,13.30
2023-02-04T09:54:31.690Z,13.08
2023-02-04T09:55:31.882Z,12.98
2023-02-04T09:56:32.051Z,12.95
2023-02-04T09:57:32.230Z,12.93
2023-02-04T09:58:32.393Z,12.72
2023-02-04T09:59:32.581Z,12.45
2023-02-04T10:00:33.039Z,12.22
2023-02-04T10:01:32.918Z,12.09
2023-02-04T10:02:33.088Z,11.99
2023-02-04T10:03:33.308Z,11.90
2023-02-04T10:04:33.445Z,11.84
2023-02-04T10:05:33.632Z,11.80
2023-02-04T10:06:33.776Z,11.73
2023-02-04T10:07:33.987Z,11.57
2023-02-04T10:08:34.158Z,11.47
2023-02-04T10:09:34.332Z,11.40
2023-02-04T10:10:34.774Z,11.30
2023-02-04T10:11:34.692Z,11.18
2023-02-04T10:12:34.874Z,10.90
2023-02-04T10:13:35.062Z,10.60
2023-02-04T10:14:35.260Z,10.49
2023-02-04T10:15:35.400Z,10.37
2023-02-04T10:16:35.718Z,10.22
2023-02-04T10:17:35.773Z,10.01
2023-02-04T10:18:35.940Z,9.84
2023-02-04T10:19:36.118Z,9.74
2023-02-04T10:20:36.314Z,9.68
2023-02-04T10:21:36.488Z,9.69
2023-02-04T10:22:36.670Z,9.68
2023-02-04T10:23:36.837Z,9.66
2023-02-04T10:24:37.033Z,9.64
2023-02-04T10:25:37.177Z,9.65
2023-02-04T10:26:37.356Z,9.62
2023-02-04T10:27:37.536Z,9.58
2023-02-04T10:28:37.724Z,9.48
2023-02-04T10:29:37.926Z,9.37
2023-02-04T10:30:38.183Z,9.31
2023-02-04T10:31:38.428Z,9.31
2023-02-04T10:32:38.451Z,9.28
2023-02-04T10:33:38.635Z,9.28
2023-02-04T10:34:38.838Z,9.28
2023-02-04T10:35:38.962Z,9.23
2023-02-04T10:36:39.132Z,9.26
2023-02-04T10:37:39.312Z,9.31
2023-02-04T10:38:39.482Z,9.32
2023-02-04T10:39:39.661Z,9.31
2023-02-04T10:40:39.852Z,9.25
2023-02-04T10:41:40.052Z,9.19
2023-02-04T10:42:40.212Z,9.16
2023-02-04T10:43:40.393Z,9.06
2023-02-04T10:44:40.563Z,8.97
2023-02-04T10:45:40.766Z,8.91
2023-02-04T10:46:40.901Z,8.89
2023-02-04T10:47:41.073Z,8.94
2023-02-04T10:48:41.252Z,8.95
2023-02-04T10:49:41.433Z,8.99
2023-02-04T10:50:41.651Z,9.00
2023-02-04T10:51:41.804Z,9.00
2023-02-04T10:52:41.950Z,9.03
2023-02-04T10:53:42.103Z,9.06
2023-02-04T10:54:42.297Z,9.08
2023-02-04T10:55:42.474Z,9.06
2023-02-04T10:56:42.644Z,9.13
2023-02-04T10:57:42.822Z,9.18
2023-02-04T10:58:42.993Z,9.25
2023-02-04T10:59:43.171Z,9.26
2023-02-04T11:00:43.412Z,9.26
2023-02-04T11:01:43.561Z,9.23
2023-02-04T11:02:43.688Z,9.26
2023-02-04T11:03:45.331Z,9.29
2023-02-04T11:04:44.043Z,9.36
2023-02-04T11:05:44.254Z,9.39
2023-02-04T11:06:44.404Z,9.46
2023-02-04T11:07:44.587Z,9.50
2023-02-04T11:08:44.754Z,9.51
2023-02-04T11:09:44.983Z,9.59
2023-02-04T11:10:45.116Z,9.64
2023-02-04T11:11:45.285Z,9.68
2023-02-04T11:12:45.456Z,9.79
2023-02-04T11:13:45.680Z,9.79
2023-02-04T11:14:45.803Z,9.84
2023-02-04T11:15:47.893Z,9.97
2023-02-04T11:16:46.156Z,10.01
2023-02-04T11:17:46.344Z,10.07
2023-02-04T11:18:46.523Z,10.16
2023-02-04T11:19:46.705Z,10.25
2023-02-04T11:20:46.903Z,10.30
2023-02-04T11:21:47.053Z,10.37
2023-02-04T11:22:47.257Z,10.37
2023-02-04T11:23:47.412Z,10.41
2023-02-04T11:24:47.592Z,10.44
2023-02-04T11:25:47.783Z,10.40
2023-02-04T11:26:48.947Z,10.34
2023-02-04T11:27:48.130Z,10.30
2023-02-04T11:28:48.310Z,10.19
2023-02-04T11:29:48.500Z,10.16
2023-02-04T11:30:48.773Z,10.10
2023-02-04T11:31:49.008Z,10.09
2023-02-04T11:32:49.024Z,10.12
2023-02-04T11:33:49.228Z,10.13
2023-02-04T11:34:49.421Z,10.12
2023-02-04T11:35:49.611Z,10.16
2023-02-04T11:36:49.745Z,10.20
2023-02-04T11:37:49.931Z,10.19
2023-02-04T11:38:50.117Z,10.16
2023-02-04T11:39:50.305Z,10.15
2023-02-04T11:40:50.499Z,10.15
2023-02-04T11:41:50.628Z,10.19
2023-02-04T11:42:50.810Z,10.23
2023-02-04T11:43:50.988Z,10.26
2023-02-04T11:44:51.179Z,10.25
2023-02-04T11:45:51.407Z,10.23
2023-02-04T11:46:51.542Z,10.16
2023-02-04T11:47:51.708Z,10.17
2023-02-04T11:48:51.852Z,10.23
2023-02-04T11:49:52.019Z,10.25
2023-02-04T11:50:52.278Z,10.26
2023-02-04T11:51:52.384Z,10.28
2023-02-04T11:52:52.560Z,10.34
2023-02-04T11:53:52.751Z,10.31
2023-02-04T11:54:52.928Z,10.26
2023-02-04T11:55:53.110Z,10.28
2023-02-04T11:56:53.302Z,10.20
2023-02-04T11:57:53.479Z,10.23
2023-02-04T11:58:53.658Z,10.25
2023-02-04T11:59:53.836Z,10.25
2023-02-04T12:00:54.043Z,10.22
2023-02-04T12:01:54.188Z,10.22
2023-02-04T12:02:54.386Z,10.20
2023-02-04T12:03:54.562Z,10.23
2023-02-04T12:04:54.700Z,10.23
2023-02-04T12:05:54.933Z,10.28
2023-02-04T12:06:55.049Z,10.28
2023-02-04T12:07:55.223Z,10.30
2023-02-04T12:08:55.407Z,10.30
2023-02-04T12:09:55.581Z,10.30
2023-02-04T12:10:55.809Z,10.26
2023-02-04T12:11:55.949Z,10.23
2023-02-04T12:12:56.143Z,10.16
2023-02-04T12:13:56.359Z,10.10
2023-02-04T12:14:56.498Z,10.02
2023-02-04T12:15:56.730Z,9.98
2023-02-04T12:16:56.882Z,9.92
2023-02-04T12:17:57.030Z,9.91
2023-02-04T12:18:57.208Z,9.77
2023-02-04T12:19:57.388Z,9.68
2023-02-04T12:20:57.609Z,9.55
2023-02-04T12:21:57.749Z,9.44
2023-02-04T12:22:57.918Z,9.43
2023-02-04T12:23:58.089Z,9.41
2023-02-04T12:24:58.270Z,9.39
2023-02-04T12:25:58.502Z,9.37
2023-02-04T12:26:58.638Z,9.39
2023-02-04T12:27:58.880Z,9.40
2023-02-04T12:28:58.996Z,9.44
2023-02-04T12:29:59.167Z,9.43
2023-02-04T12:30:59.405Z,9.50
2023-02-04T12:31:59.550Z,9.56
2023-02-04T12:32:59.667Z,9.61
2023-02-04T12:33:59.842Z,9.61
2023-02-04T12:35:00.017Z,9.61
2023-02-04T12:36:00.204Z,9.62
2023-02-04T12:37:00.408Z,9.54
2023-02-04T12:38:00.584Z,9.50
2023-02-04T12:39:00.754Z,9.47
2023-02-04T12:40:00.935Z,9.47
2023-02-04T12:41:01.186Z,9.47
2023-02-04T12:42:01.276Z,9.41
2023-02-04T12:43:01.457Z,9.34
2023-02-04T12:44:01.623Z,9.28
2023-02-04T12:45:01.838Z,9.19
2023-02-04T12:46:02.026Z,9.11
2023-02-04T12:47:02.192Z,9.06
2023-02-04T12:48:02.415Z,9.03
2023-02-04T12:49:02.541Z,8.99
2023-02-04T12:50:02.733Z,8.97
2023-02-04T12:51:02.974Z,8.94
2023-02-04T12:52:03.068Z,8.94
2023-02-04T12:53:03.241Z,8.95
2023-02-04T12:54:03.424Z,8.97
2023-02-04T12:55:03.601Z,8.92
2023-02-04T12:56:03.780Z,8.89
2023-02-04T12:57:03.971Z,8.92
2023-02-04T12:58:04.141Z,8.99
2023-02-04T12:59:04.332Z,9.02
2023-02-04T13:00:04.495Z,9.02
2023-02-04T13:01:04.789Z,9.03
2023-02-04T13:02:04.935Z,9.08
2023-02-04T13:03:05.012Z,9.13
2023-02-04T13:04:05.194Z,9.18
2023-02-04T13:05:05.401Z,9.23
2023-02-04T13:06:05.561Z,9.36
2023-02-04T13:07:05.741Z,9.47
2023-02-04T13:08:05.908Z,9.58
2023-02-04T13:09:06.129Z,9.65
2023-02-04T13:10:06.273Z,9.76
2023-02-04T13:11:06.488Z,9.86
2023-02-04T13:12:06.648Z,9.91
2023-02-04T13:13:06.791Z,9.94
2023-02-04T13:14:06.930Z,9.98
2023-02-04T13:15:07.133Z,10.04